createdAt,value
2022-10-31T00:00:43.952Z,14.25
2022-10-31T00:03:22.998Z,12.68
2022-10-31T00:06:01.515Z,8.57
2022-10-31T00:08:33.142Z,11.38
2022-10-31T00:11:06.667Z,10.10
2022-10-31T00:20:22.776Z,9.50
2022-10-31T00:26:53.335Z,10.48
2022-10-31T00:29:48.802Z,22.77
2022-10-31T00:32:49.514Z,12.00
2022-10-31T00:36:28.565Z,11.40
2022-10-31T00:39:41.196Z,9.57
2022-10-31T00:45:12.795Z,11.38
2022-10-31T00:48:27.728Z,10.75
2022-10-31T00:51:19.745Z,12.15
2022-10-31T00:54:24.396Z,11.23
2022-10-31T00:57:24.076Z,10.07
2022-10-31T00:59:57.140Z,9.20
2022-10-31T01:02:27.198Z,8.18
2022-10-31T01:04:57.234Z,10.70
2022-10-31T01:07:26.824Z,8.25
2022-10-31T01:09:59.961Z,11.82
2022-10-31T01:12:36.492Z,7.95
2022-10-31T01:15:16.287Z,10.82
2022-10-31T01:18:36.274Z,13.68
2022-10-31T01:21:49.003Z,8.80
2022-10-31T01:24:43.257Z,12.20
2022-10-31T01:27:58.266Z,9.10
2022-10-31T01:38:31.423Z,13.13
2022-10-31T01:41:54.283Z,12.82
2022-10-31T01:44:45.205Z,10.23
2022-10-31T01:47:37.652Z,10.98
2022-10-31T01:50:32.790Z,12.15
2022-10-31T01:53:45.214Z,9.55
2022-10-31T01:57:02.820Z,13.25
2022-10-31T02:00:08.816Z,9.32
2022-10-31T02:03:03.462Z,12.90
2022-10-31T02:06:02.319Z,6.85
2022-10-31T02:09:09.546Z,7.50
2022-10-31T02:12:17.090Z,9.82
2022-10-31T02:15:02.196Z,17.38
2022-10-31T02:18:01.498Z,8.13
2022-10-31T02:21:50.784Z,6.65
2022-10-31T02:24:44.214Z,12.18
2022-10-31T02:27:55.036Z,9.63
2022-10-31T02:31:07.282Z,10.48
2022-10-31T02:34:58.627Z,14.65
2022-10-31T02:41:25.347Z,7.73
2022-10-31T02:44:28.678Z,9.20
2022-10-31T02:47:35.865Z,8.90
2022-10-31T02:51:00.763Z,8.77
2022-10-31T02:54:13.685Z,13.60
2022-10-31T02:56:48.885Z,10.50
2022-10-31T02:59:21.489Z,10.38
2022-10-31T03:02:27.191Z,10.95
2022-10-31T03:05:58.477Z,33.50
2022-10-31T03:08:54.170Z,15.15
2022-10-31T03:11:30.241Z,11.18
2022-10-31T03:14:19.971Z,9.15
2022-10-31T03:17:24.793Z,17.13
2022-10-31T03:20:19.746Z,10.77
2022-10-31T03:23:17.278Z,9.45
2022-10-31T03:26:05.467Z,11.70
2022-10-31T03:28:50.725Z,9.05
2022-10-31T03:31:52.220Z,14.80
2022-10-31T03:35:24.119Z,13.07
2022-10-31T03:37:55.939Z,12.30
2022-10-31T03:40:48.635Z,12.25
2022-10-31T03:44:10.145Z,10.35
2022-10-31T03:50:51.604Z,9.55
2022-10-31T03:53:46.543Z,10.18
2022-10-31T03:56:52.441Z,9.13
2022-10-31T04:00:28.068Z,11.98
2022-10-31T04:03:35.790Z,13.30
2022-10-31T04:06:09.249Z,14.23
2022-10-31T04:09:05.375Z,12.32
2022-10-31T04:11:46.244Z,11.90
2022-10-31T04:14:41.856Z,15.60
2022-10-31T04:17:52.544Z,12.70
2022-10-31T04:21:17.372Z,16.20
2022-10-31T04:23:55.347Z,9.02
2022-10-31T04:26:28.965Z,22.98
2022-10-31T04:29:25.020Z,12.02
2022-10-31T04:32:23.962Z,11.18
2022-10-31T04:35:14.840Z,17.00
2022-10-31T04:38:19.571Z,9.73
2022-10-31T04:41:12.867Z,11.27
2022-10-31T04:44:02.557Z,15.40
2022-10-31T04:46:44.613Z,11.65
2022-10-31T04:49:46.199Z,15.57
2022-10-31T04:52:28.597Z,13.25
2022-10-31T04:58:19.046Z,16.73
2022-10-31T05:00:58.700Z,13.50
2022-10-31T05:03:47.903Z,22.48
2022-10-31T05:06:36.491Z,17.23
2022-10-31T05:09:22.145Z,14.95
2022-10-31T05:14:59.406Z,14.85
2022-10-31T05:18:08.803Z,23.90
2022-10-31T05:21:15.481Z,13.93
2022-10-31T05:24:10.318Z,9.15
2022-10-31T05:26:58.089Z,17.08
2022-10-31T05:29:50.149Z,20.10
2022-10-31T05:32:34.678Z,25.25
2022-10-31T05:35:32.620Z,12.70
2022-10-31T05:38:30.556Z,12.10
2022-10-31T05:41:52.762Z,15.77
2022-10-31T05:45:00.143Z,12.82
2022-10-31T05:48:04.967Z,14.52
2022-10-31T05:50:58.432Z,20.63
2022-10-31T05:53:39.210Z,14.45
2022-10-31T05:56:09.993Z,11.70
2022-10-31T05:58:58.186Z,18.63
2022-10-31T06:01:40.576Z,21.02
2022-10-31T06:04:22.984Z,16.83
2022-10-31T06:06:55.183Z,11.38
2022-10-31T06:09:25.889Z,15.98
2022-10-31T06:11:56.938Z,16.55
2022-10-31T06:14:35.233Z,14.88
2022-10-31T06:17:11.876Z,19.50
2022-10-31T06:20:26.678Z,30.60
2022-10-31T06:23:12.845Z,15.82
2022-10-31T06:26:05.941Z,19.48
2022-10-31T06:28:45.785Z,13.40
2022-10-31T06:32:12.913Z,16.03
2022-10-31T06:34:58.982Z,15.77
2022-10-31T06:37:49.691Z,27.70
2022-10-31T06:44:12.118Z,13.30
2022-10-31T06:47:20.757Z,12.45
2022-10-31T06:50:45.855Z,22.25
2022-10-31T06:53:21.395Z,16.67
2022-10-31T06:56:22.969Z,13.93
2022-10-31T06:59:02.516Z,15.05
2022-10-31T07:02:15.690Z,17.33
2022-10-31T07:05:06.896Z,29.10
2022-10-31T07:08:00.149Z,23.60
2022-10-31T07:10:40.661Z,20.38
2022-10-31T07:13:28.614Z,17.35
2022-10-31T07:16:52.887Z,17.88
2022-10-31T07:19:51.235Z,18.30
2022-10-31T07:22:28.286Z,13.63
2022-10-31T07:25:14.400Z,14.27
2022-10-31T07:31:56.516Z,17.73
2022-10-31T07:34:52.562Z,14.52
2022-10-31T07:38:24.015Z,13.38
2022-10-31T07:41:26.917Z,16.90
2022-10-31T07:44:16.695Z,13.10
2022-10-31T07:46:59.758Z,18.35
2022-10-31T07:58:29.534Z,13.85
2022-10-31T08:01:08.348Z,27.35
2022-10-31T08:03:52.324Z,19.67
2022-10-31T08:06:58.512Z,23.88
2022-10-31T08:09:36.573Z,18.67
2022-10-31T08:12:41.254Z,25.60
2022-10-31T08:15:27.703Z,21.52
2022-10-31T08:18:30.286Z,20.85
2022-10-31T08:21:04.574Z,15.32
2022-10-31T08:23:41.743Z,17.85
2022-10-31T08:26:11.592Z,17.60
2022-10-31T08:28:42.271Z,23.70
2022-10-31T08:31:20.226Z,18.85
2022-10-31T08:34:14.316Z,12.00
2022-10-31T08:37:08.782Z,8.82
2022-10-31T08:39:47.757Z,16.15
2022-10-31T08:42:22.974Z,16.40
2022-10-31T08:44:59.990Z,10.55
2022-10-31T08:48:24.336Z,13.82
2022-10-31T08:51:03.685Z,14.82
2022-10-31T08:53:36.787Z,13.77
2022-10-31T08:56:32.766Z,22.08
2022-10-31T08:59:04.047Z,13.98
2022-10-31T09:01:45.257Z,13.80
2022-10-31T09:04:15.610Z,12.30
2022-10-31T09:07:20.733Z,8.23
2022-10-31T09:09:53.749Z,10.98
2022-10-31T09:12:31.920Z,7.90
2022-10-31T09:15:57.119Z,9.07
2022-10-31T09:18:43.416Z,18.45
2022-10-31T09:21:20.113Z,12.55
2022-10-31T09:24:02.591Z,17.05
2022-10-31T09:26:32.856Z,12.32
2022-10-31T09:29:30.649Z,12.32
2022-10-31T09:32:05.954Z,14.73
2022-10-31T09:34:46.329Z,9.05
2022-10-31T09:37:20.351Z,7.40
2022-10-31T09:39:52.694Z,8.90
2022-10-31T09:42:53.973Z,9.95
2022-10-31T09:45:39.959Z,11.10
2022-10-31T09:48:31.359Z,6.00
2022-10-31T09:51:23.268Z,12.95
2022-10-31T09:54:08.385Z,6.78
2022-10-31T09:56:45.572Z,11.88
2022-10-31T09:59:24.332Z,5.90
2022-10-31T10:01:58.712Z,5.75
2022-10-31T10:04:39.250Z,8.25
2022-10-31T10:08:01.561Z,11.95
2022-10-31T10:11:16.377Z,8.98
2022-10-31T10:14:22.121Z,5.90
2022-10-31T10:17:23.609Z,9.25
2022-10-31T10:20:34.388Z,11.50
2022-10-31T10:23:25.662Z,9.52
2022-10-31T10:26:10.994Z,11.43
2022-10-31T10:28:52.338Z,4.05
2022-10-31T10:31:50.397Z,7.68
2022-10-31T10:34:28.344Z,13.43
2022-10-31T10:37:06.157Z,7.03
2022-10-31T10:39:42.429Z,4.38
2022-10-31T10:42:38.623Z,7.20
2022-10-31T10:46:09.217Z,6.60
2022-10-31T10:48:53.105Z,7.53
2022-10-31T10:51:39.132Z,6.28
2022-10-31T10:54:34.114Z,11.60
2022-10-31T10:57:25.688Z,8.32
2022-10-31T10:59:55.526Z,6.97
2022-10-31T11:02:26.459Z,4.93
2022-10-31T11:04:59.854Z,4.20
2022-10-31T11:07:43.899Z,5.07
2022-10-31T11:10:21.088Z,8.05
2022-10-31T11:13:18.980Z,6.57
2022-10-31T11:16:27.410Z,4.53
2022-10-31T11:19:23.300Z,5.43
2022-10-31T11:21:56.102Z,5.45
2022-10-31T11:24:31.865Z,3.35
2022-10-31T11:27:19.322Z,4.40
2022-10-31T11:30:18.798Z,5.22
2022-10-31T11:32:56.751Z,5.75
2022-10-31T11:35:32.375Z,4.97
2022-10-31T11:38:42.862Z,8.18
2022-10-31T11:44:44.178Z,8.73
2022-10-31T11:47:23.004Z,4.13
2022-10-31T11:49:54.277Z,7.90
2022-10-31T11:52:37.256Z,3.55
2022-10-31T11:55:19.172Z,4.63
2022-10-31T11:57:55.237Z,4.63
2022-10-31T12:00:30.474Z,5.10
2022-10-31T12:03:17.457Z,1.48
2022-10-31T12:05:55.208Z,3.67
2022-10-31T12:08:26.397Z,6.32
2022-10-31T12:11:01.096Z,5.28
2022-10-31T12:13:36.881Z,4.90
2022-10-31T12:16:15.719Z,8.30
2022-10-31T12:18:57.275Z,4.07
2022-10-31T12:21:46.280Z,4.95
2022-10-31T12:24:31.285Z,6.13
2022-10-31T12:27:06.909Z,2.00
2022-10-31T12:29:45.274Z,3.00
2022-10-31T12:32:25.455Z,3.40
2022-10-31T12:35:23.132Z,5.00
2022-10-31T12:37:59.657Z,3.47
2022-10-31T12:40:36.751Z,3.75
2022-10-31T12:43:15.603Z,2.35
2022-10-31T12:45:54.669Z,2.65
2022-10-31T12:48:43.093Z,5.40
2022-10-31T12:51:17.438Z,6.45
2022-10-31T12:53:53.381Z,3.10
2022-10-31T12:56:39.196Z,4.57
2022-10-31T12:59:16.192Z,3.95
2022-10-31T13:01:50.677Z,6.25
2022-10-31T13:04:23.271Z,6.43
2022-10-31T13:06:57.274Z,8.02
2022-10-31T13:09:30.078Z,6.22
2022-10-31T13:12:01.285Z,4.68
2022-10-31T13:14:34.554Z,5.30
2022-10-31T13:17:06.088Z,6.80
2022-10-31T13:19:37.460Z,5.40
2022-10-31T13:22:12.600Z,6.28
2022-10-31T13:24:44.694Z,3.35
2022-10-31T13:27:23.154Z,2.65
2022-10-31T13:29:57.233Z,5.35
2022-10-31T13:32:28.373Z,3.47
2022-10-31T13:34:59.372Z,1.80
2022-10-31T13:37:34.374Z,2.88
2022-10-31T13:40:16.510Z,2.85
2022-10-31T13:42:52.575Z,3.10
2022-10-31T13:45:23.474Z,1.42
2022-10-31T13:48:00.771Z,3.63
2022-10-31T13:50:33.585Z,2.08
2022-10-31T13:53:40.215Z,4.72
2022-10-31T13:56:17.303Z,3.88
2022-10-31T13:58:58.551Z,3.60
2022-10-31T14:01:31.251Z,3.53
2022-10-31T14:04:13.812Z,6.78
2022-10-31T14:06:51.376Z,5.28
2022-10-31T14:09:27.752Z,2.13
2022-10-31T14:11:59.135Z,4.07
2022-10-31T14:14:32.774Z,1.60
2022-10-31T14:17:02.545Z,1.38
2022-10-31T14:19:32.333Z,4.97
2022-10-31T14:22:01.674Z,2.65
2022-10-31T14:24:39.715Z,1.48
2022-10-31T14:27:24.418Z,3.22
2022-10-31T14:29:53.966Z,1.98
2022-10-31T14:32:27.190Z,3.90
2022-10-31T14:34:59.445Z,5.75
2022-10-31T14:37:45.697Z,7.43
2022-10-31T14:40:26.765Z,8.13
2022-10-31T14:43:15.721Z,3.10
2022-10-31T14:46:04.002Z,4.95
2022-10-31T14:48:44.959Z,8.02
2022-10-31T14:51:18.334Z,3.97
2022-10-31T14:53:49.265Z,3.95
2022-10-31T14:56:23.473Z,4.38
2022-10-31T14:58:56.374Z,4.18
2022-10-31T15:01:29.991Z,3.70
2022-10-31T15:04:22.535Z,2.85
2022-10-31T15:06:54.595Z,6.25
2022-10-31T15:09:25.637Z,4.50
2022-10-31T15:12:12.310Z,3.85
2022-10-31T15:14:47.911Z,5.85
2022-10-31T15:17:19.662Z,7.25
2022-10-31T15:19:49.858Z,3.97
2022-10-31T15:22:24.522Z,2.95
2022-10-31T15:24:57.539Z,4.15
2022-10-31T15:27:39.798Z,4.07
2022-10-31T15:30:23.351Z,6.57
2022-10-31T15:32:58.622Z,6.80
2022-10-31T15:35:57.324Z,7.75
2022-10-31T15:38:29.336Z,2.42
2022-10-31T15:41:03.891Z,7.38
2022-10-31T15:43:39.284Z,6.53
2022-10-31T15:46:11.217Z,5.03
2022-10-31T15:48:41.678Z,3.15
2022-10-31T15:51:10.955Z,6.30
2022-10-31T15:53:45.101Z,5.18
2022-10-31T15:56:16.231Z,5.45
2022-10-31T15:58:55.827Z,5.07
2022-10-31T16:01:28.417Z,5.00
2022-10-31T16:04:08.625Z,3.95
2022-10-31T16:06:37.981Z,6.72
2022-10-31T16:09:21.681Z,4.45
2022-10-31T16:11:52.251Z,6.32
2022-10-31T16:14:26.035Z,3.80
2022-10-31T16:16:57.480Z,6.20
2022-10-31T16:19:27.503Z,3.95
2022-10-31T16:21:58.726Z,3.92
2022-10-31T16:24:29.857Z,4.45
2022-10-31T16:27:04.952Z,6.75
2022-10-31T16:29:41.426Z,8.05
2022-10-31T16:32:25.916Z,9.32
2022-10-31T16:35:05.691Z,6.55
2022-10-31T16:37:35.640Z,7.00
2022-10-31T16:40:05.446Z,4.57
2022-10-31T16:42:35.056Z,7.32
2022-10-31T16:45:08.207Z,6.43
2022-10-31T16:47:38.153Z,6.03
2022-10-31T16:50:08.840Z,11.27
2022-10-31T16:52:53.778Z,5.68
2022-10-31T16:55:28.595Z,5.10
2022-10-31T16:58:02.008Z,8.77
2022-10-31T17:00:37.410Z,6.10
2022-10-31T17:03:08.700Z,8.32
2022-10-31T17:05:39.666Z,7.22
2022-10-31T17:08:14.482Z,9.65
2022-10-31T17:10:47.139Z,6.63
2022-10-31T17:13:21.257Z,4.25
2022-10-31T17:15:54.394Z,9.27
2022-10-31T17:18:27.582Z,8.27
2022-10-31T17:21:01.487Z,8.18
2022-10-31T17:23:33.571Z,10.18
2022-10-31T17:26:07.613Z,11.43
2022-10-31T17:28:38.255Z,13.25
2022-10-31T17:31:10.027Z,11.73
2022-10-31T17:33:43.522Z,12.52
2022-10-31T17:36:18.200Z,10.63
2022-10-31T17:38:51.371Z,15.48
2022-10-31T17:41:21.248Z,10.75
2022-10-31T17:43:52.436Z,11.88
2022-10-31T17:46:29.333Z,11.53
2022-10-31T17:49:03.703Z,13.18
2022-10-31T17:51:38.519Z,12.23
2022-10-31T17:54:14.816Z,16.23
2022-10-31T17:56:49.635Z,13.73
2022-10-31T17:59:26.099Z,13.27
2022-10-31T18:01:57.545Z,13.77
2022-10-31T18:04:29.290Z,19.60
2022-10-31T18:07:02.917Z,15.40
2022-10-31T18:09:37.086Z,18.25
2022-10-31T18:14:38.201Z,19.92
2022-10-31T18:17:10.566Z,19.73
2022-10-31T18:19:40.502Z,15.75
2022-10-31T18:22:12.176Z,21.42
2022-10-31T18:24:44.925Z,26.45
2022-10-31T18:27:15.121Z,19.20
2022-10-31T18:29:46.464Z,24.65
2022-10-31T18:32:17.970Z,23.88
2022-10-31T18:34:52.836Z,27.52
2022-10-31T18:37:24.538Z,26.05
2022-10-31T18:39:53.741Z,21.73
2022-10-31T18:42:23.504Z,24.02
2022-10-31T18:44:53.124Z,26.17
2022-10-31T18:47:23.620Z,27.48
2022-10-31T18:49:53.222Z,29.50
2022-10-31T18:52:27.284Z,34.10
2022-10-31T18:54:57.356Z,35.65
2022-10-31T18:57:26.930Z,30.02
2022-10-31T18:59:56.385Z,25.70
2022-10-31T19:02:36.863Z,29.83
2022-10-31T19:05:09.516Z,27.63
2022-10-31T19:07:38.558Z,31.20
2022-10-31T19:10:08.403Z,22.73
2022-10-31T19:12:38.497Z,31.20
2022-10-31T19:15:08.481Z,31.95
2022-10-31T19:17:41.866Z,28.60
2022-10-31T19:20:12.217Z,33.45
2022-10-31T19:22:44.743Z,27.67
2022-10-31T19:25:17.382Z,30.80
2022-10-31T19:27:46.783Z,25.73
2022-10-31T19:30:19.655Z,26.27
2022-10-31T19:32:52.444Z,27.23
2022-10-31T19:35:21.853Z,27.30
2022-10-31T19:37:53.533Z,31.40
2022-10-31T19:40:24.445Z,31.00
2022-10-31T19:45:27.529Z,26.27
2022-10-31T19:48:01.376Z,33.38
2022-10-31T19:50:37.519Z,26.80
2022-10-31T19:53:09.546Z,30.17
2022-10-31T19:58:23.389Z,25.63
2022-10-31T20:01:07.389Z,30.08
2022-10-31T20:03:42.063Z,31.85
2022-10-31T20:06:16.426Z,25.70
2022-10-31T20:08:47.544Z,25.95
2022-10-31T20:11:17.296Z,29.80
2022-10-31T20:13:47.297Z,23.58
2022-10-31T20:16:17.966Z,26.75
2022-10-31T20:18:51.438Z,27.77
2022-10-31T20:21:23.474Z,22.40
2022-10-31T20:24:02.301Z,19.50
2022-10-31T20:26:32.176Z,23.10
2022-10-31T20:29:04.017Z,24.35
2022-10-31T20:31:35.874Z,21.60
2022-10-31T20:34:13.126Z,21.85
2022-10-31T20:36:48.701Z,26.25
2022-10-31T20:39:18.146Z,20.95
2022-10-31T20:41:49.932Z,18.02
2022-10-31T20:44:22.918Z,15.93
2022-10-31T20:46:56.000Z,19.73
2022-10-31T20:49:33.948Z,12.50
2022-10-31T20:52:07.569Z,13.50
2022-10-31T20:54:42.149Z,14.85
2022-10-31T20:57:15.789Z,9.00
2022-10-31T20:59:47.679Z,11.35
2022-10-31T21:02:27.419Z,14.82
2022-10-31T21:05:10.928Z,12.32
2022-10-31T21:07:56.525Z,18.27
2022-10-31T21:10:41.109Z,16.88
2022-10-31T21:13:23.005Z,14.88
2022-10-31T21:16:30.591Z,14.10
2022-10-31T21:19:03.580Z,11.38
2022-10-31T21:21:37.508Z,11.25
2022-10-31T21:24:08.903Z,18.48
2022-10-31T21:26:41.330Z,15.63
2022-10-31T21:29:16.183Z,14.30
2022-10-31T21:31:45.872Z,16.38
2022-10-31T21:34:25.083Z,14.05
2022-10-31T21:36:59.415Z,8.65
2022-10-31T21:39:40.022Z,12.13
2022-10-31T21:42:11.166Z,12.27
2022-10-31T21:44:42.942Z,8.10
2022-10-31T21:47:16.207Z,10.40
2022-10-31T21:49:48.068Z,8.98
2022-10-31T21:52:27.946Z,8.35
2022-10-31T21:55:01.693Z,12.30
2022-10-31T21:57:31.706Z,10.43
2022-10-31T22:00:01.519Z,11.63
2022-10-31T22:02:33.173Z,14.93
2022-10-31T22:05:05.559Z,10.10
2022-10-31T22:07:36.685Z,9.65
2022-10-31T22:10:08.511Z,9.93
2022-10-31T22:12:40.817Z,9.93
2022-10-31T22:15:14.176Z,6.32
2022-10-31T22:17:48.898Z,13.45
2022-10-31T22:20:25.000Z,10.80
2022-10-31T22:22:56.325Z,7.30
2022-10-31T22:25:29.385Z,6.68
2022-10-31T22:28:10.206Z,7.60
2022-10-31T22:30:42.338Z,3.97
2022-10-31T22:33:21.202Z,7.05
2022-10-31T22:36:04.812Z,7.72
2022-10-31T22:38:42.991Z,7.50
2022-10-31T22:41:13.634Z,7.30
2022-10-31T22:43:48.565Z,12.52
2022-10-31T22:46:24.956Z,5.30
2022-10-31T22:48:58.207Z,5.75
2022-10-31T22:51:29.068Z,8.88
2022-10-31T22:54:05.529Z,5.63
2022-10-31T22:56:38.552Z,7.60
2022-10-31T22:59:14.571Z,9.50
2022-10-31T23:02:08.598Z,5.22
2022-10-31T23:04:43.514Z,8.30
2022-10-31T23:07:23.070Z,6.40
2022-10-31T23:09:59.034Z,7.82
2022-10-31T23:12:49.210Z,9.27
2022-10-31T23:15:22.149Z,5.97
2022-10-31T23:17:58.702Z,5.78
2022-10-31T23:20:30.301Z,2.22
2022-10-31T23:23:02.086Z,2.88
2022-10-31T23:25:52.585Z,6.03
2022-10-31T23:28:23.698Z,4.43
2022-10-31T23:30:54.043Z,4.70
2022-10-31T23:33:30.615Z,7.15
2022-10-31T23:36:06.812Z,4.63
2022-10-31T23:38:40.126Z,7.35
2022-10-31T23:41:13.531Z,5.30
2022-10-31T23:43:49.085Z,10.02
2022-10-31T23:46:21.915Z,8.52
2022-10-31T23:48:53.697Z,7.22
2022-10-31T23:51:23.324Z,8.98
2022-10-31T23:53:53.620Z,15.02
2022-10-31T23:56:26.973Z,12.30
2022-10-31T23:58:58.394Z,6.93
